createdAt,value
2022-11-13T00:00:55.679Z,16.25
2022-11-13T00:03:22.421Z,17.60
2022-11-13T00:05:49.005Z,15.80
2022-11-13T00:08:15.638Z,16.40
2022-11-13T00:10:42.217Z,15.43
2022-11-13T00:13:08.771Z,15.07
2022-11-13T00:15:35.310Z,16.45
2022-11-13T00:18:03.184Z,18.13
2022-11-13T00:20:29.946Z,15.80
2022-11-13T00:22:56.549Z,13.50
2022-11-13T00:25:23.147Z,15.00
2022-11-13T00:27:49.736Z,15.02
2022-11-13T00:30:19.525Z,17.92
2022-11-13T00:32:46.323Z,15.25
2022-11-13T00:35:12.920Z,17.02
2022-11-13T00:37:39.508Z,15.02
2022-11-13T00:40:06.452Z,20.17
2022-11-13T00:42:33.039Z,17.83
2022-11-13T00:44:59.616Z,17.52
2022-11-13T00:47:26.162Z,19.30
2022-11-13T00:49:52.756Z,18.10
2022-11-13T00:52:19.428Z,15.30
2022-11-13T00:54:46.025Z,15.20
2022-11-13T00:57:12.601Z,15.50
2022-11-13T00:59:39.238Z,15.88
2022-11-13T01:02:06.152Z,16.27
2022-11-13T01:04:32.784Z,14.90
2022-11-13T01:06:59.444Z,13.82
2022-11-13T01:09:26.194Z,13.90
2022-11-13T01:11:53.081Z,13.98
2022-11-13T01:14:19.694Z,13.50
2022-11-13T01:16:46.276Z,11.90
2022-11-13T01:19:13.237Z,13.38
2022-11-13T01:21:40.727Z,13.32
2022-11-13T01:24:07.566Z,12.88
2022-11-13T01:26:34.136Z,12.55
2022-11-13T01:29:01.088Z,13.02
2022-11-13T01:31:30.383Z,15.02
2022-11-13T01:33:57.361Z,11.88
2022-11-13T01:36:26.915Z,12.43
2022-11-13T01:38:53.689Z,13.75
2022-11-13T01:41:31.736Z,13.32
2022-11-13T01:43:59.143Z,13.73
2022-11-13T01:46:25.708Z,14.50
2022-11-13T01:49:04.458Z,14.48
2022-11-13T01:51:39.567Z,12.10
2022-11-13T01:54:09.260Z,13.75
2022-11-13T01:56:35.931Z,12.80
2022-11-13T01:59:14.733Z,12.48
2022-11-13T02:01:41.574Z,12.98
2022-11-13T02:04:08.221Z,13.23
2022-11-13T02:06:37.991Z,12.77
2022-11-13T02:09:05.892Z,11.73
2022-11-13T02:11:32.444Z,12.60
2022-11-13T02:13:59.774Z,13.65
2022-11-13T02:16:26.524Z,11.57
2022-11-13T02:18:53.177Z,13.00
2022-11-13T02:21:27.657Z,13.07
2022-11-13T02:24:01.776Z,15.23
2022-11-13T02:26:28.398Z,15.27
2022-11-13T02:28:55.340Z,13.45
2022-11-13T02:31:22.082Z,12.75
2022-11-13T02:33:48.679Z,13.93
2022-11-13T02:36:15.516Z,14.95
2022-11-13T02:38:42.164Z,13.90
2022-11-13T02:41:08.744Z,13.32
2022-11-13T02:43:35.482Z,13.88
2022-11-13T02:46:02.179Z,13.40
2022-11-13T02:48:28.867Z,13.07
2022-11-13T02:50:55.735Z,12.82
2022-11-13T02:53:22.466Z,12.63
2022-11-13T02:55:49.097Z,14.45
2022-11-13T02:58:15.682Z,12.13
2022-11-13T03:00:42.297Z,14.65
2022-11-13T03:03:08.913Z,13.55
2022-11-13T03:05:35.541Z,12.15
2022-11-13T03:08:02.199Z,12.75
2022-11-13T03:10:28.785Z,13.80
2022-11-13T03:12:55.395Z,14.10
2022-11-13T03:15:22.010Z,12.65
2022-11-13T03:17:48.623Z,12.80
2022-11-13T03:20:15.477Z,12.45
2022-11-13T03:22:42.215Z,12.65
2022-11-13T03:25:10.950Z,13.23
2022-11-13T03:27:38.188Z,12.95
2022-11-13T03:30:05.735Z,11.82
2022-11-13T03:32:32.314Z,14.00
2022-11-13T03:34:58.896Z,12.65
2022-11-13T03:37:25.504Z,12.77
2022-11-13T03:39:52.096Z,13.52
2022-11-13T03:42:18.707Z,12.93
2022-11-13T03:44:45.403Z,12.25
2022-11-13T03:47:12.040Z,11.15
2022-11-13T03:49:38.650Z,12.48
2022-11-13T03:52:05.276Z,12.07
2022-11-13T03:54:31.927Z,14.20
2022-11-13T03:56:58.587Z,16.00
2022-11-13T03:59:25.209Z,13.80
2022-11-13T04:01:51.990Z,15.52
2022-11-13T04:04:18.791Z,15.48
2022-11-13T04:06:45.424Z,13.30
2022-11-13T04:09:12.332Z,13.55
2022-11-13T04:11:38.892Z,12.43
2022-11-13T04:14:05.487Z,14.07
2022-11-13T04:16:32.113Z,15.77
2022-11-13T04:18:58.736Z,13.57
2022-11-13T04:21:25.583Z,15.70
2022-11-13T04:23:52.276Z,13.35
2022-11-13T04:26:19.323Z,13.50
2022-11-13T04:28:45.981Z,14.27
2022-11-13T04:31:12.581Z,13.80
2022-11-13T04:33:39.188Z,14.63
2022-11-13T04:36:06.183Z,16.17
2022-11-13T04:38:32.772Z,15.90
2022-11-13T04:41:17.939Z,15.88
2022-11-13T04:43:44.528Z,15.45
2022-11-13T04:46:11.103Z,13.70
2022-11-13T04:48:37.684Z,15.25
2022-11-13T04:51:04.557Z,14.23
2022-11-13T04:53:31.156Z,15.02
2022-11-13T04:55:57.819Z,15.57
2022-11-13T04:58:24.425Z,14.85
2022-11-13T05:00:50.997Z,14.15
2022-11-13T05:03:17.596Z,14.45
2022-11-13T05:05:44.236Z,15.63
2022-11-13T05:08:10.935Z,14.00
2022-11-13T05:10:37.528Z,13.40
2022-11-13T05:13:04.166Z,13.10
2022-11-13T05:15:30.838Z,12.45
2022-11-13T05:17:57.491Z,13.85
2022-11-13T05:20:24.072Z,15.40
2022-11-13T05:22:50.652Z,12.88
2022-11-13T05:25:17.252Z,15.02
2022-11-13T05:27:43.866Z,13.70
2022-11-13T05:30:10.769Z,14.73
2022-11-13T05:32:37.326Z,17.50
2022-11-13T05:35:04.318Z,12.10
2022-11-13T05:37:30.913Z,16.98
2022-11-13T05:39:57.537Z,13.15
2022-11-13T05:42:24.161Z,12.43
2022-11-13T05:44:50.834Z,11.43
2022-11-13T05:47:17.391Z,12.57
2022-11-13T05:49:43.992Z,15.95
2022-11-13T05:52:10.564Z,13.35
2022-11-13T05:54:37.214Z,14.18
2022-11-13T05:57:03.842Z,20.50
2022-11-13T05:59:30.464Z,12.73
2022-11-13T06:01:57.094Z,13.85
2022-11-13T06:04:23.703Z,15.32
2022-11-13T06:06:50.349Z,14.63
2022-11-13T06:09:17.631Z,14.88
2022-11-13T06:11:44.531Z,14.43
2022-11-13T06:14:11.179Z,19.85
2022-11-13T06:16:38.522Z,17.75
2022-11-13T06:19:07.960Z,14.95
2022-11-13T06:21:39.830Z,13.93
2022-11-13T06:24:06.894Z,13.95
2022-11-13T06:26:35.128Z,14.35
2022-11-13T06:29:02.472Z,14.55
2022-11-13T06:31:30.859Z,13.25
2022-11-13T06:33:59.341Z,12.80
2022-11-13T06:36:31.397Z,12.75
2022-11-13T06:38:58.293Z,13.15
2022-11-13T06:41:29.716Z,12.25
2022-11-13T06:44:02.068Z,12.30
2022-11-13T06:48:57.007Z,14.70
2022-11-13T06:51:25.538Z,13.00
2022-11-13T06:53:52.459Z,13.38
2022-11-13T06:56:19.151Z,13.10
2022-11-13T06:58:45.808Z,12.20
2022-11-13T07:01:14.420Z,11.70
2022-11-13T07:03:41.542Z,11.32
2022-11-13T07:06:14.529Z,11.32
2022-11-13T07:08:44.718Z,12.25
2022-11-13T07:11:13.522Z,11.88
2022-11-13T07:13:40.303Z,12.45
2022-11-13T07:16:16.381Z,12.13
2022-11-13T07:18:44.014Z,12.82
2022-11-13T07:21:11.915Z,11.52
2022-11-13T07:23:43.128Z,11.32
2022-11-13T07:26:10.974Z,11.05
2022-11-13T07:28:37.751Z,11.00
2022-11-13T07:31:04.672Z,10.18
2022-11-13T07:33:31.412Z,10.55
2022-11-13T07:35:58.250Z,10.27
2022-11-13T07:38:25.008Z,10.95
2022-11-13T07:40:51.795Z,10.85
2022-11-13T07:43:18.478Z,10.18
2022-11-13T07:45:45.048Z,10.90
2022-11-13T07:48:11.666Z,9.20
2022-11-13T07:50:38.664Z,9.73
2022-11-13T07:53:08.023Z,9.07
2022-11-13T07:55:35.027Z,8.82
2022-11-13T07:58:02.393Z,8.50
2022-11-13T08:00:30.310Z,8.35
2022-11-13T08:02:56.907Z,9.63
2022-11-13T08:05:23.733Z,8.73
2022-11-13T08:07:51.486Z,9.20
2022-11-13T08:10:19.396Z,8.60
2022-11-13T08:12:46.430Z,9.27
2022-11-13T08:15:13.724Z,9.10
2022-11-13T08:17:40.575Z,9.15
2022-11-13T08:20:08.233Z,9.32
2022-11-13T08:22:34.881Z,9.63
2022-11-13T08:25:01.461Z,9.80
2022-11-13T08:27:28.074Z,10.30
2022-11-13T08:29:54.704Z,10.93
2022-11-13T08:32:22.612Z,10.27
2022-11-13T08:34:49.464Z,10.43
2022-11-13T08:37:16.179Z,12.20
2022-11-13T08:39:42.820Z,10.93
2022-11-13T08:42:09.570Z,12.25
2022-11-13T08:44:36.155Z,11.10
2022-11-13T08:47:02.924Z,13.80
2022-11-13T08:49:29.548Z,14.27
2022-11-13T08:51:56.146Z,15.57
2022-11-13T08:54:22.751Z,13.52
2022-11-13T08:56:55.670Z,12.77
2022-11-13T08:59:23.807Z,12.98
2022-11-13T09:01:50.711Z,14.57
2022-11-13T09:04:17.313Z,14.10
2022-11-13T09:06:43.992Z,15.63
2022-11-13T09:09:10.686Z,13.05
2022-11-13T09:11:37.314Z,12.57
2022-11-13T09:14:03.947Z,12.38
2022-11-13T09:16:30.535Z,11.55
2022-11-13T09:18:57.187Z,11.13
2022-11-13T09:21:23.821Z,11.77
2022-11-13T09:23:50.699Z,11.32
2022-11-13T09:26:17.797Z,12.00
2022-11-13T09:28:44.427Z,11.88
2022-11-13T09:31:10.985Z,12.27
2022-11-13T09:33:37.731Z,11.43
2022-11-13T09:36:10.761Z,10.57
2022-11-13T09:38:37.407Z,10.50
2022-11-13T09:41:09.970Z,12.13
2022-11-13T09:43:44.850Z,11.45
2022-11-13T09:46:36.397Z,11.18
2022-11-13T09:49:29.662Z,10.75
2022-11-13T09:51:58.540Z,10.80
2022-11-13T09:54:27.265Z,11.80
2022-11-13T09:57:07.348Z,11.23
2022-11-13T09:59:45.527Z,11.35
2022-11-13T10:02:27.127Z,11.30
2022-11-13T10:05:12.333Z,10.25
2022-11-13T10:07:54.809Z,12.23
2022-11-13T10:10:29.755Z,11.83
2022-11-13T10:12:57.116Z,12.32
2022-11-13T10:15:24.004Z,11.63
2022-11-13T10:17:57.495Z,11.07
2022-11-13T10:20:36.608Z,13.13
2022-11-13T10:23:16.947Z,12.40
2022-11-13T10:25:44.220Z,11.95
2022-11-13T10:31:12.090Z,11.70
2022-11-13T10:33:38.943Z,10.98
2022-11-13T10:36:32.179Z,12.60
2022-11-13T10:39:06.234Z,10.57
2022-11-13T10:41:33.384Z,11.68
2022-11-13T10:44:00.808Z,11.02
2022-11-13T10:46:33.051Z,10.05
2022-11-13T10:49:16.805Z,11.63
2022-11-13T10:51:43.567Z,11.43
2022-11-13T10:54:30.228Z,11.38
2022-11-13T10:57:05.077Z,12.48
2022-11-13T10:59:40.313Z,12.98
2022-11-13T11:02:39.380Z,12.10
2022-11-13T11:05:15.746Z,12.93
2022-11-13T11:07:42.395Z,13.20
2022-11-13T11:10:36.303Z,13.70
2022-11-13T11:13:13.082Z,13.63
2022-11-13T11:15:47.269Z,13.88
2022-11-13T11:18:48.754Z,13.27
2022-11-13T11:21:24.172Z,12.32
2022-11-13T11:24:06.058Z,11.75
2022-11-13T11:26:34.350Z,12.35
2022-11-13T11:29:07.591Z,11.50
2022-11-13T11:31:44.786Z,12.43
2022-11-13T11:34:18.283Z,11.20
2022-11-13T11:37:04.300Z,11.95
2022-11-13T11:39:46.170Z,11.57
2022-11-13T11:42:33.870Z,11.68
2022-11-13T11:45:21.668Z,11.48
2022-11-13T11:47:48.340Z,10.65
2022-11-13T11:50:23.612Z,9.93
2022-11-13T11:53:00.969Z,10.48
2022-11-13T11:55:36.788Z,10.02
2022-11-13T11:58:24.408Z,9.45
2022-11-13T12:00:52.570Z,9.77
2022-11-13T12:03:45.242Z,7.80
2022-11-13T12:06:20.845Z,8.10
2022-11-13T12:08:56.212Z,8.82
2022-11-13T12:11:35.562Z,8.40
2022-11-13T12:14:20.896Z,8.20
2022-11-13T12:16:57.855Z,8.57
2022-11-13T12:19:46.061Z,8.25
2022-11-13T12:22:30.964Z,7.97
2022-11-13T12:25:19.626Z,8.45
2022-11-13T12:28:06.731Z,7.95
2022-11-13T12:30:49.394Z,7.97
2022-11-13T12:33:32.350Z,8.43
2022-11-13T12:35:59.449Z,10.30
2022-11-13T12:38:39.427Z,8.32
2022-11-13T12:41:29.515Z,8.35
2022-11-13T12:44:23.083Z,8.32
2022-11-13T12:49:32.173Z,9.10
2022-11-13T12:52:04.368Z,7.20
2022-11-13T12:54:33.103Z,8.38
2022-11-13T12:57:30.444Z,8.50
2022-11-13T13:00:00.548Z,7.95
2022-11-13T13:02:31.691Z,8.25
2022-11-13T13:05:10.623Z,7.25
2022-11-13T13:08:05.031Z,7.90
2022-11-13T13:10:50.367Z,8.68
2022-11-13T13:13:24.248Z,7.28
2022-11-13T13:15:56.539Z,7.05
2022-11-13T13:18:28.430Z,7.47
2022-11-13T13:21:04.449Z,7.15
2022-11-13T13:23:36.116Z,7.30
2022-11-13T13:26:07.070Z,6.75
2022-11-13T13:28:34.209Z,6.55
2022-11-13T13:31:16.613Z,6.80
2022-11-13T13:33:43.342Z,6.50
2022-11-13T13:36:38.379Z,6.57
2022-11-13T13:39:33.437Z,6.88
2022-11-13T13:42:06.214Z,6.90
2022-11-13T13:44:35.960Z,7.50
2022-11-13T13:47:11.919Z,7.20
2022-11-13T13:49:38.507Z,6.47
2022-11-13T13:52:05.452Z,6.97
2022-11-13T13:54:33.261Z,7.28
2022-11-13T13:56:59.928Z,6.97
2022-11-13T13:59:32.561Z,6.65
2022-11-13T14:02:01.561Z,7.07
2022-11-13T14:04:29.943Z,7.07
2022-11-13T14:07:01.385Z,7.75
2022-11-13T14:09:29.930Z,7.82
2022-11-13T14:12:09.369Z,7.13
2022-11-13T14:14:39.189Z,6.97
2022-11-13T14:17:07.072Z,7.28
2022-11-13T14:19:33.717Z,7.28
2022-11-13T14:22:01.403Z,7.82
2022-11-13T14:24:51.997Z,7.78
2022-11-13T14:27:25.294Z,7.60
2022-11-13T14:29:56.898Z,8.02
2022-11-13T14:32:26.261Z,8.40
2022-11-13T14:34:54.330Z,7.57
2022-11-13T14:37:29.734Z,7.88
2022-11-13T14:39:57.595Z,7.43
2022-11-13T14:42:36.719Z,7.45
2022-11-13T14:45:39.243Z,7.63
2022-11-13T14:48:23.584Z,8.35
2022-11-13T14:50:51.922Z,7.90
2022-11-13T14:53:39.353Z,7.15
2022-11-13T14:56:10.919Z,8.18
2022-11-13T14:58:49.555Z,8.68
2022-11-13T15:01:23.615Z,9.65
2022-11-13T15:03:51.679Z,9.35
2022-11-13T15:06:23.274Z,9.07
2022-11-13T15:08:51.214Z,9.50
2022-11-13T15:11:19.784Z,8.88
2022-11-13T15:13:46.823Z,9.15
2022-11-13T15:16:15.955Z,9.30
2022-11-13T15:18:45.984Z,8.95
2022-11-13T15:21:12.585Z,9.05
2022-11-13T15:23:39.243Z,9.40
2022-11-13T15:26:05.880Z,9.77
2022-11-13T15:28:32.463Z,9.52
2022-11-13T15:30:59.059Z,8.80
2022-11-13T15:33:25.793Z,8.95
2022-11-13T15:35:52.474Z,10.20
2022-11-13T15:38:19.458Z,9.07
2022-11-13T15:40:46.188Z,10.48
2022-11-13T15:43:20.175Z,9.73
2022-11-13T15:45:46.776Z,9.07
2022-11-13T15:48:13.672Z,9.93
2022-11-13T15:50:40.244Z,9.45
2022-11-13T15:53:09.128Z,9.50
2022-11-13T15:55:35.806Z,10.43
2022-11-13T15:58:02.440Z,10.38
2022-11-13T16:00:29.651Z,10.57
2022-11-13T16:02:57.219Z,11.75
2022-11-13T16:05:25.591Z,10.88
2022-11-13T16:07:53.417Z,12.27
2022-11-13T16:10:21.068Z,12.52
2022-11-13T16:12:47.722Z,13.05
2022-11-13T16:15:17.057Z,12.93
2022-11-13T16:17:48.977Z,13.27
2022-11-13T16:20:17.047Z,15.02
2022-11-13T16:22:44.148Z,13.90
2022-11-13T16:25:16.501Z,14.77
2022-11-13T16:27:43.402Z,16.83
2022-11-13T16:30:26.530Z,17.27
2022-11-13T16:32:53.223Z,17.50
2022-11-13T16:35:20.293Z,17.90
2022-11-13T16:37:47.276Z,20.55
2022-11-13T16:40:26.176Z,22.02
2022-11-13T16:42:53.493Z,24.02
2022-11-13T16:45:20.594Z,22.33
2022-11-13T16:47:47.389Z,23.00
2022-11-13T16:50:23.752Z,20.67
2022-11-13T16:52:50.994Z,20.17
2022-11-13T16:55:17.642Z,17.38
2022-11-13T16:57:44.318Z,17.40
2022-11-13T17:00:14.171Z,16.63
2022-11-13T17:02:40.963Z,15.45
2022-11-13T17:05:10.606Z,15.55
2022-11-13T17:07:37.271Z,15.32
2022-11-13T17:10:29.675Z,15.07
2022-11-13T17:12:52.593Z,14.93
2022-11-13T17:15:19.412Z,14.40
2022-11-13T17:17:46.284Z,14.77
2022-11-13T17:20:13.682Z,13.95
2022-11-13T17:22:43.941Z,13.93
2022-11-13T17:25:10.562Z,15.15
2022-11-13T17:27:37.334Z,14.85
2022-11-13T17:30:04.296Z,14.15
2022-11-13T17:32:30.926Z,14.95
2022-11-13T17:34:57.556Z,15.35
2022-11-13T17:37:25.468Z,17.08
2022-11-13T17:39:52.110Z,16.75
2022-11-13T17:42:18.746Z,16.75
2022-11-13T17:44:45.338Z,16.40
2022-11-13T17:47:12.006Z,16.08
2022-11-13T17:49:38.600Z,15.48
2022-11-13T17:52:05.269Z,16.13
2022-11-13T17:54:31.865Z,16.33
2022-11-13T17:56:58.488Z,16.35
2022-11-13T17:59:25.078Z,16.00
2022-11-13T18:01:51.767Z,18.15
2022-11-13T18:04:18.516Z,18.73
2022-11-13T18:06:45.303Z,17.30
2022-11-13T18:09:11.971Z,17.55
2022-11-13T18:11:38.562Z,17.40
2022-11-13T18:14:05.202Z,16.98
2022-11-13T18:16:34.675Z,16.63
2022-11-13T18:19:03.574Z,16.50
2022-11-13T18:21:32.118Z,15.38
2022-11-13T18:24:02.841Z,15.32
2022-11-13T18:26:30.467Z,15.65
2022-11-13T18:28:57.702Z,16.48
2022-11-13T18:31:24.553Z,17.25
2022-11-13T18:33:51.448Z,18.15
2022-11-13T18:36:18.177Z,17.27
2022-11-13T18:38:45.058Z,15.85
2022-11-13T18:41:15.969Z,19.33
2022-11-13T18:43:44.561Z,19.60
2022-11-13T18:46:12.048Z,20.67
2022-11-13T18:48:40.270Z,23.08
2022-11-13T18:51:11.208Z,20.70
2022-11-13T18:53:37.952Z,17.85
2022-11-13T18:56:06.970Z,17.33
2022-11-13T18:58:37.067Z,16.92
2022-11-13T19:01:22.168Z,17.60
2022-11-13T19:04:16.019Z,16.88
2022-11-13T19:06:37.360Z,17.05
2022-11-13T19:09:11.124Z,17.58
2022-11-13T19:11:37.778Z,17.35
2022-11-13T19:14:04.436Z,16.50
2022-11-13T19:16:34.228Z,16.65
2022-11-13T19:19:08.490Z,17.17
2022-11-13T19:21:35.902Z,16.08
2022-11-13T19:24:03.619Z,15.60
2022-11-13T19:26:30.481Z,14.80
2022-11-13T19:28:57.254Z,14.57
2022-11-13T19:31:26.213Z,15.30
2022-11-13T19:34:00.434Z,15.52
2022-11-13T19:36:28.783Z,14.23
2022-11-13T19:38:55.852Z,14.32
2022-11-13T19:41:23.696Z,15.27
2022-11-13T19:43:50.930Z,15.77
2022-11-13T19:46:18.776Z,15.32
2022-11-13T19:48:48.296Z,16.85
2022-11-13T19:51:19.920Z,19.38
2022-11-13T19:53:46.791Z,19.33
2022-11-13T19:56:19.198Z,21.58
2022-11-13T19:58:47.015Z,20.92
2022-11-13T20:01:18.972Z,20.00
2022-11-13T20:03:45.934Z,19.10
2022-11-13T20:06:14.181Z,18.58
2022-11-13T20:08:42.002Z,20.10
2022-11-13T20:11:10.904Z,21.27
2022-11-13T20:13:38.936Z,20.17
2022-11-13T20:16:06.732Z,18.92
2022-11-13T20:18:33.394Z,16.80
2022-11-13T20:21:00.422Z,19.05
2022-11-13T20:23:27.058Z,19.20
2022-11-13T20:25:55.273Z,18.88
2022-11-13T20:28:23.111Z,20.77
2022-11-13T20:30:49.928Z,20.50
2022-11-13T20:33:22.211Z,20.10
2022-11-13T20:35:55.571Z,20.88
2022-11-13T20:38:22.281Z,21.63
2022-11-13T20:40:49.023Z,20.23
2022-11-13T20:43:15.602Z,26.25
2022-11-13T20:45:42.172Z,24.55
2022-11-13T20:48:08.780Z,24.80
2022-11-13T20:50:36.565Z,23.95
2022-11-13T20:53:03.751Z,21.60
2022-11-13T20:55:30.653Z,21.60
2022-11-13T20:57:57.536Z,21.80
2022-11-13T21:00:24.279Z,20.40
2022-11-13T21:02:51.826Z,18.48
2022-11-13T21:05:18.606Z,18.63
2022-11-13T21:07:45.271Z,18.30
2022-11-13T21:10:11.837Z,18.13
2022-11-13T21:12:38.485Z,16.92
2022-11-13T21:15:05.596Z,17.42
2022-11-13T21:17:32.287Z,17.65
2022-11-13T21:19:58.888Z,18.52
2022-11-13T21:22:25.495Z,19.40
2022-11-13T21:24:52.590Z,18.08
2022-11-13T21:27:19.251Z,18.25
2022-11-13T21:29:46.006Z,20.92
2022-11-13T21:32:12.654Z,18.27
2022-11-13T21:34:39.475Z,18.40
2022-11-13T21:37:06.512Z,19.60
2022-11-13T21:39:33.097Z,19.27
2022-11-13T21:42:00.068Z,19.02
2022-11-13T21:44:27.039Z,20.60
2022-11-13T21:46:54.300Z,20.02
2022-11-13T21:49:20.878Z,19.45
2022-11-13T21:51:47.465Z,18.65
2022-11-13T21:54:14.229Z,20.42
2022-11-13T21:56:42.226Z,19.15
2022-11-13T21:59:09.018Z,20.30
2022-11-13T22:01:38.586Z,19.55
2022-11-13T22:04:06.212Z,20.60
2022-11-13T22:06:36.340Z,20.65
2022-11-13T22:09:23.502Z,20.58
2022-11-13T22:11:50.371Z,20.23
2022-11-13T22:14:17.412Z,20.70
2022-11-13T22:16:45.256Z,21.60
2022-11-13T22:19:16.208Z,22.02
2022-11-13T22:21:43.009Z,21.38
2022-11-13T22:24:10.411Z,20.83
2022-11-13T22:26:39.121Z,20.50
2022-11-13T22:29:06.004Z,20.95
2022-11-13T22:31:33.342Z,21.00
2022-11-13T22:34:00.021Z,21.63
2022-11-13T22:36:31.179Z,18.85
2022-11-13T22:38:58.092Z,18.40
2022-11-13T22:41:32.789Z,19.95
2022-11-13T22:44:07.464Z,18.80
2022-11-13T22:46:35.981Z,19.70
2022-11-13T22:49:04.906Z,19.95
2022-11-13T22:51:35.188Z,20.85
2022-11-13T22:54:04.708Z,22.50
2022-11-13T22:56:32.425Z,22.05
2022-11-13T22:59:00.444Z,20.98
2022-11-13T23:01:28.921Z,22.42
2022-11-13T23:03:56.196Z,21.27
2022-11-13T23:06:25.363Z,20.67
2022-11-13T23:08:52.083Z,21.75
2022-11-13T23:11:24.598Z,21.23
2022-11-13T23:13:56.603Z,20.00
2022-11-13T23:16:24.073Z,20.45
2022-11-13T23:18:51.509Z,19.45
2022-11-13T23:21:18.563Z,19.27
2022-11-13T23:23:45.307Z,19.85
2022-11-13T23:26:12.538Z,19.73
2022-11-13T23:28:39.242Z,19.27
2022-11-13T23:31:05.969Z,20.20
2022-11-13T23:33:32.943Z,19.05
2022-11-13T23:35:59.729Z,19.38
2022-11-13T23:38:26.625Z,18.70
2022-11-13T23:40:57.303Z,19.15
2022-11-13T23:43:36.453Z,19.02
2022-11-13T23:46:10.820Z,18.92
2022-11-13T23:48:39.937Z,18.50
2022-11-13T23:51:07.028Z,21.42
2022-11-13T23:53:33.638Z,20.35
2022-11-13T23:56:00.326Z,19.45
2022-11-13T23:58:27.289Z,19.05
